createdAt,value
2023-02-05T00:01:02.638Z,-2.25
2023-02-05T00:03:31.722Z,-2.27
2023-02-05T00:06:01.622Z,-2.26
2023-02-05T00:08:31.484Z,-2.19
2023-02-05T00:11:08.090Z,-2.15
2023-02-05T00:13:40.374Z,-2.32
2023-02-05T00:16:10.880Z,-2.23
2023-02-05T00:18:39.934Z,-2.23
2023-02-05T00:21:09.759Z,-2.20
2023-02-05T00:23:40.108Z,-2.19
2023-02-05T00:26:11.051Z,-2.14
2023-02-05T00:28:42.589Z,-2.13
2023-02-05T00:31:14.248Z,-2.16
2023-02-05T00:33:44.176Z,-2.23
2023-02-05T00:36:14.809Z,-2.20
2023-02-05T00:38:45.429Z,-2.35
2023-02-05T00:41:15.058Z,-2.29
2023-02-05T00:43:46.003Z,-2.37
2023-02-05T00:46:16.472Z,-2.38
2023-02-05T00:48:45.560Z,-2.41
2023-02-05T00:51:15.996Z,-2.43
2023-02-05T00:53:45.216Z,-2.39
2023-02-05T00:56:14.545Z,-2.48
2023-02-05T00:58:48.504Z,-2.53
2023-02-05T01:01:18.219Z,-2.52
2023-02-05T01:03:47.462Z,-2.53
2023-02-05T01:06:16.420Z,-2.53
2023-02-05T01:08:45.552Z,-2.49
2023-02-05T01:11:15.240Z,-2.56
2023-02-05T01:13:45.743Z,-2.51
2023-02-05T01:16:16.038Z,-2.61
2023-02-05T01:18:45.299Z,-2.50
2023-02-05T01:21:15.150Z,-2.54
2023-02-05T01:23:44.190Z,-2.70
2023-02-05T01:26:13.254Z,-2.69
2023-02-05T01:28:46.793Z,-2.72
2023-02-05T01:31:16.865Z,-2.69
2023-02-05T01:33:46.010Z,-2.71
2023-02-05T01:36:15.259Z,-2.69
2023-02-05T01:38:44.266Z,-2.70
2023-02-05T01:41:16.054Z,-2.73
2023-02-05T01:44:12.081Z,-2.80
2023-02-05T01:46:42.655Z,-2.71
2023-02-05T01:49:17.188Z,-2.83
2023-02-05T01:51:49.166Z,-2.73
2023-02-05T01:54:21.886Z,-2.77
2023-02-05T01:56:55.481Z,-2.76
2023-02-05T01:59:29.426Z,-2.74
2023-02-05T02:02:01.092Z,-2.80
2023-02-05T02:04:39.484Z,-2.83
2023-02-05T02:07:11.322Z,-2.79
2023-02-05T02:09:43.235Z,-2.64
2023-02-05T02:12:14.445Z,-2.71
2023-02-05T02:14:49.539Z,-2.73
2023-02-05T02:17:40.326Z,-2.80
2023-02-05T02:20:12.154Z,-2.68
2023-02-05T02:22:59.794Z,-2.83
2023-02-05T02:25:50.391Z,-2.87
2023-02-05T02:28:25.464Z,-2.80
2023-02-05T02:31:03.365Z,-2.84
2023-02-05T02:33:37.288Z,-2.84
2023-02-05T02:36:14.779Z,-2.92
2023-02-05T02:38:49.995Z,-2.87
2023-02-05T02:41:26.594Z,-2.96
2023-02-05T02:43:59.842Z,-3.01
2023-02-05T02:46:33.357Z,-3.00
2023-02-05T02:49:07.569Z,-3.23
2023-02-05T02:51:41.543Z,-3.13
2023-02-05T02:54:18.236Z,-3.25
2023-02-05T02:56:50.530Z,-3.15
2023-02-05T02:59:26.404Z,-3.26
2023-02-05T03:02:00.658Z,-3.22
2023-02-05T03:04:34.221Z,-3.24
2023-02-05T03:07:10.542Z,-3.37
2023-02-05T03:09:44.782Z,-3.20
2023-02-05T03:12:14.384Z,-3.27
2023-02-05T03:14:44.909Z,-3.28
2023-02-05T03:17:18.942Z,-3.30
2023-02-05T03:19:57.952Z,-3.33
2023-02-05T03:22:27.904Z,-3.27
2023-02-05T03:24:56.996Z,-3.41
2023-02-05T03:27:27.442Z,-3.45
2023-02-05T03:29:59.720Z,-3.36
2023-02-05T03:32:43.054Z,-3.45
2023-02-05T03:35:18.096Z,-3.46
2023-02-05T03:38:02.129Z,-3.64
2023-02-05T03:40:39.692Z,-3.58
2023-02-05T03:43:15.243Z,-3.59
2023-02-05T03:46:00.727Z,-3.55
2023-02-05T03:48:41.556Z,-3.58
2023-02-05T03:51:24.199Z,-3.72
2023-02-05T03:54:06.935Z,-3.71
2023-02-05T03:56:44.711Z,-3.66
2023-02-05T03:59:16.729Z,-3.72
2023-02-05T04:01:52.195Z,-3.68
2023-02-05T04:04:22.157Z,-3.78
2023-02-05T04:06:54.706Z,-3.71
2023-02-05T04:09:25.192Z,-3.69
2023-02-05T04:11:56.080Z,-3.80
2023-02-05T04:14:26.035Z,-3.85
2023-02-05T04:16:56.707Z,-3.88
2023-02-05T04:19:27.808Z,-3.84
2023-02-05T04:21:59.648Z,-3.81
2023-02-05T04:24:30.252Z,-3.85
2023-02-05T04:26:59.158Z,-3.87
2023-02-05T04:29:28.610Z,-3.77
2023-02-05T04:32:01.932Z,-3.78
2023-02-05T04:34:31.467Z,-3.89
2023-02-05T04:37:02.408Z,-3.86
2023-02-05T04:39:32.796Z,-3.85
2023-02-05T04:42:02.227Z,-3.84
2023-02-05T04:44:31.332Z,-3.80
2023-02-05T04:47:02.091Z,-3.93
2023-02-05T04:49:33.497Z,-3.86
2023-02-05T04:52:02.816Z,-3.81
2023-02-05T04:54:32.311Z,-3.89
2023-02-05T04:57:01.831Z,-3.89
2023-02-05T04:59:31.865Z,-3.86
2023-02-05T05:02:02.556Z,-3.85
2023-02-05T05:04:31.775Z,-3.80
2023-02-05T05:07:01.343Z,-3.80
2023-02-05T05:09:30.242Z,-3.72
2023-02-05T05:11:59.381Z,-3.69
2023-02-05T05:14:29.201Z,-3.72
2023-02-05T05:16:58.802Z,-3.89
2023-02-05T05:19:29.213Z,-3.87
2023-02-05T05:22:00.069Z,-3.89
2023-02-05T05:24:29.547Z,-3.78
2023-02-05T05:26:58.643Z,-3.77
2023-02-05T05:29:27.786Z,-3.76
2023-02-05T05:31:57.034Z,-3.84
2023-02-05T05:34:26.113Z,-3.63
2023-02-05T05:36:56.703Z,-3.54
2023-02-05T05:39:43.004Z,-3.66
2023-02-05T05:42:30.408Z,-3.69
2023-02-05T05:44:59.461Z,-3.69
2023-02-05T05:47:28.841Z,-3.69
2023-02-05T05:49:58.527Z,-3.86
2023-02-05T05:52:32.100Z,-3.80
2023-02-05T05:55:01.548Z,-3.72
2023-02-05T05:57:32.327Z,-3.69
2023-02-05T06:00:01.424Z,-3.64
2023-02-05T06:02:32.303Z,-3.67
2023-02-05T06:05:02.521Z,-3.68
2023-02-05T06:07:33.549Z,-3.58
2023-02-05T06:10:03.150Z,-3.53
2023-02-05T06:12:33.185Z,-3.55
2023-02-05T06:15:02.284Z,-3.56
2023-02-05T06:17:33.402Z,-3.52
2023-02-05T06:20:02.529Z,-3.57
2023-02-05T06:22:34.822Z,-3.40
2023-02-05T06:25:05.431Z,-3.40
2023-02-05T06:27:34.477Z,-3.40
2023-02-05T06:30:03.434Z,-3.40
2023-02-05T06:32:34.075Z,-3.31
2023-02-05T06:35:03.470Z,-3.22
2023-02-05T06:37:46.842Z,-3.23
2023-02-05T06:40:18.448Z,-3.26
2023-02-05T06:42:47.413Z,-3.36
2023-02-05T06:45:16.518Z,-3.25
2023-02-05T06:47:46.653Z,-3.30
2023-02-05T06:50:15.877Z,-3.35
2023-02-05T06:52:46.317Z,-3.49
2023-02-05T06:55:15.548Z,-3.43
2023-02-05T06:57:44.813Z,-3.27
2023-02-05T07:00:16.142Z,-3.31
2023-02-05T07:02:45.753Z,-3.21
2023-02-05T07:05:14.970Z,-3.27
2023-02-05T07:07:44.478Z,-3.28
2023-02-05T07:10:15.646Z,-3.26
2023-02-05T07:12:44.805Z,-3.34
2023-02-05T07:15:14.070Z,-3.03
2023-02-05T07:17:43.233Z,-3.08
2023-02-05T07:20:13.690Z,-3.01
2023-02-05T07:22:42.816Z,-2.98
2023-02-05T07:25:12.376Z,-2.98
2023-02-05T07:27:43.831Z,-2.94
2023-02-05T07:30:14.937Z,-2.85
2023-02-05T07:32:44.227Z,-2.85
2023-02-05T07:35:13.299Z,-2.76
2023-02-05T07:37:42.381Z,-2.75
2023-02-05T07:40:12.320Z,-2.83
2023-02-05T07:42:43.662Z,-2.76
2023-02-05T07:45:14.594Z,-2.68
2023-02-05T07:47:44.354Z,-2.67
2023-02-05T07:50:13.730Z,-2.61
2023-02-05T07:52:42.851Z,-2.66
2023-02-05T07:55:15.660Z,-2.77
2023-02-05T07:57:47.175Z,-2.57
2023-02-05T08:00:16.770Z,-2.40
2023-02-05T08:02:45.806Z,-2.33
2023-02-05T08:05:14.861Z,-2.23
2023-02-05T08:07:43.943Z,-2.04
2023-02-05T08:10:15.667Z,-2.18
2023-02-05T08:12:46.294Z,-2.05
2023-02-05T08:15:16.547Z,-1.97
2023-02-05T08:17:46.379Z,-2.18
2023-02-05T08:20:16.176Z,-2.17
2023-02-05T08:22:45.916Z,-2.17
2023-02-05T08:25:16.636Z,-2.26
2023-02-05T08:27:48.294Z,-2.31
2023-02-05T08:30:22.570Z,-2.34
2023-02-05T08:32:53.868Z,-2.44
2023-02-05T08:35:25.493Z,-2.38
2023-02-05T08:37:55.432Z,-2.28
2023-02-05T08:40:24.798Z,-2.12
2023-02-05T08:42:57.951Z,-2.08
2023-02-05T08:45:28.498Z,-2.23
2023-02-05T08:47:57.676Z,-2.08
2023-02-05T08:50:27.741Z,-1.90
2023-02-05T08:52:56.982Z,-1.78
2023-02-05T08:55:26.712Z,-1.94
2023-02-05T08:57:58.069Z,-1.83
2023-02-05T09:00:27.189Z,-1.89
2023-02-05T09:02:56.442Z,-1.72
2023-02-05T09:05:25.575Z,-1.75
2023-02-05T09:07:57.078Z,-1.78
2023-02-05T09:10:26.937Z,-1.99
2023-02-05T09:12:57.432Z,-1.92
2023-02-05T09:15:27.007Z,-1.80
2023-02-05T09:17:56.441Z,-1.74
2023-02-05T09:20:26.236Z,-1.83
2023-02-05T09:22:55.604Z,-1.62
2023-02-05T09:25:25.353Z,-1.63
2023-02-05T09:27:56.579Z,-1.50
2023-02-05T09:30:25.851Z,-1.62
2023-02-05T09:32:55.143Z,-1.71
2023-02-05T09:35:25.046Z,-1.63
2023-02-05T09:37:54.175Z,-1.61
2023-02-05T09:40:28.215Z,-1.69
2023-02-05T09:43:05.103Z,-1.51
2023-02-05T09:45:40.721Z,-1.63
2023-02-05T09:48:31.996Z,-1.58
2023-02-05T09:51:03.494Z,-1.64
2023-02-05T09:53:38.638Z,-1.42
2023-02-05T09:56:11.506Z,-1.24
2023-02-05T09:58:44.146Z,-1.57
2023-02-05T10:01:24.556Z,-1.57
2023-02-05T10:03:58.735Z,-1.61
2023-02-05T10:06:45.026Z,-1.57
2023-02-05T10:09:26.844Z,-1.42
2023-02-05T10:12:05.301Z,-1.26
2023-02-05T10:14:49.373Z,-1.18
2023-02-05T10:17:35.145Z,-1.12
2023-02-05T10:20:29.367Z,-0.86
2023-02-05T10:23:22.710Z,-0.95
2023-02-05T10:26:11.261Z,-0.85
2023-02-05T10:29:13.058Z,-0.61
2023-02-05T10:31:45.869Z,-0.83
2023-02-05T10:34:20.616Z,-0.36
2023-02-05T10:36:53.741Z,-0.37
2023-02-05T10:39:26.712Z,-0.55
2023-02-05T10:42:00.605Z,-0.37
2023-02-05T10:44:34.442Z,-0.37
2023-02-05T10:47:12.056Z,-0.40
2023-02-05T10:49:49.110Z,-0.27
2023-02-05T10:52:18.926Z,-0.14
2023-02-05T10:54:48.774Z,-0.38
2023-02-05T10:57:20.180Z,-0.13
2023-02-05T10:59:55.568Z,0.01
2023-02-05T11:02:34.852Z,0.23
2023-02-05T11:05:08.488Z,-0.22
2023-02-05T11:07:42.803Z,-0.42
2023-02-05T11:10:17.418Z,0.04
2023-02-05T11:12:47.878Z,0.17
2023-02-05T11:15:23.730Z,0.33
2023-02-05T11:17:56.211Z,0.06
2023-02-05T11:20:30.716Z,-0.17
2023-02-05T11:23:24.622Z,-0.43
2023-02-05T11:25:55.897Z,-0.24
2023-02-05T11:28:29.675Z,-0.40
2023-02-05T11:31:21.208Z,-0.46
2023-02-05T11:33:52.845Z,-0.48
2023-02-05T11:36:25.261Z,-0.84
2023-02-05T11:38:57.842Z,-0.77
2023-02-05T11:41:32.365Z,-0.82
2023-02-05T11:44:03.801Z,-1.14
2023-02-05T11:46:38.272Z,-1.12
2023-02-05T11:49:09.185Z,-1.37
2023-02-05T11:51:44.860Z,-1.42
2023-02-05T11:54:22.003Z,-1.65
2023-02-05T11:57:09.428Z,-1.94
2023-02-05T11:59:38.654Z,-1.72
2023-02-05T12:02:35.385Z,-1.79
2023-02-05T12:05:19.453Z,-1.88
2023-02-05T12:07:53.743Z,-1.80
2023-02-05T12:10:30.361Z,-1.76
2023-02-05T12:13:08.710Z,-2.00
2023-02-05T12:15:45.404Z,-1.75
2023-02-05T12:18:28.341Z,-1.74
2023-02-05T12:21:14.517Z,-1.74
2023-02-05T12:24:12.592Z,-1.70
2023-02-05T12:26:45.679Z,-1.73
2023-02-05T12:29:33.286Z,-1.65
2023-02-05T12:32:09.197Z,-1.49
2023-02-05T12:34:47.657Z,-1.54
2023-02-05T12:37:29.919Z,-1.54
2023-02-05T12:40:08.609Z,-1.64
2023-02-05T12:42:43.123Z,-1.68
2023-02-05T12:45:37.131Z,-1.81
2023-02-05T12:48:21.199Z,-1.85
2023-02-05T12:50:59.009Z,-1.64
2023-02-05T12:53:54.847Z,-1.74
2023-02-05T12:56:40.077Z,-1.63
2023-02-05T12:59:16.319Z,-1.85
2023-02-05T13:01:52.838Z,-1.72
2023-02-05T13:04:26.670Z,-1.93
2023-02-05T13:07:01.168Z,-1.94
2023-02-05T13:09:44.228Z,-2.04
2023-02-05T13:12:17.004Z,-2.12
2023-02-05T13:14:56.830Z,-2.16
2023-02-05T13:17:28.782Z,-2.20
2023-02-05T13:20:01.228Z,-2.30
2023-02-05T13:22:52.495Z,-2.33
2023-02-05T13:25:47.547Z,-2.45
2023-02-05T13:28:41.618Z,-2.61
2023-02-05T13:31:35.824Z,-2.48
2023-02-05T13:34:07.358Z,-2.57
2023-02-05T13:37:04.166Z,-2.40
2023-02-05T13:40:14.230Z,-2.46
2023-02-05T13:43:06.124Z,-2.47
2023-02-05T13:45:56.124Z,-2.59
2023-02-05T13:48:46.761Z,-2.57
2023-02-05T13:51:43.352Z,-2.60
2023-02-05T13:54:30.904Z,-2.65
2023-02-05T13:57:15.390Z,-2.66
2023-02-05T13:59:51.720Z,-2.76
2023-02-05T14:02:34.896Z,-2.78
2023-02-05T14:05:05.166Z,-2.84
2023-02-05T14:07:37.939Z,-2.93
2023-02-05T14:10:25.049Z,-2.86
2023-02-05T14:12:55.265Z,-2.94
2023-02-05T14:15:39.363Z,-2.84
2023-02-05T14:18:10.179Z,-2.89
2023-02-05T14:20:44.892Z,-2.99
2023-02-05T14:23:17.339Z,-2.94
2023-02-05T14:26:11.910Z,-2.87
2023-02-05T14:28:52.644Z,-2.98
2023-02-05T14:31:52.619Z,-3.07
2023-02-05T14:37:36.271Z,-2.99
2023-02-05T14:40:24.675Z,-2.96
2023-02-05T14:43:08.463Z,-3.05
2023-02-05T14:45:46.603Z,-3.01
2023-02-05T14:48:23.874Z,-3.08
2023-02-05T14:51:04.548Z,-3.09
2023-02-05T14:53:37.501Z,-3.22
2023-02-05T14:56:07.441Z,-3.21
2023-02-05T14:58:41.047Z,-3.26
2023-02-05T15:01:32.368Z,-3.21
2023-02-05T15:04:03.476Z,-3.10
2023-02-05T15:06:42.591Z,-3.04
2023-02-05T15:09:19.191Z,-3.09
2023-02-05T15:11:58.877Z,-3.23
2023-02-05T15:14:44.819Z,-3.27
2023-02-05T15:17:52.571Z,-3.27
2023-02-05T15:20:26.888Z,-3.21
2023-02-05T15:23:02.820Z,-3.27
2023-02-05T15:25:40.976Z,-3.20
2023-02-05T15:28:20.424Z,-3.34
2023-02-05T15:30:58.812Z,-3.40
2023-02-05T15:33:41.713Z,-3.26
2023-02-05T15:36:19.470Z,-3.27
2023-02-05T15:38:53.655Z,-3.38
2023-02-05T15:41:29.752Z,-3.34
2023-02-05T15:44:00.894Z,-3.38
2023-02-05T15:46:32.911Z,-3.48
2023-02-05T15:49:02.995Z,-3.41
2023-02-05T15:51:35.811Z,-3.51
2023-02-05T15:54:08.047Z,-3.55
2023-02-05T15:56:43.917Z,-3.49
2023-02-05T15:59:17.036Z,-3.51
2023-02-05T16:01:49.495Z,-3.60
2023-02-05T16:04:21.151Z,-3.56
2023-02-05T16:06:50.788Z,-3.54
2023-02-05T16:09:21.553Z,-3.47
2023-02-05T16:11:53.562Z,-3.55
2023-02-05T16:14:24.452Z,-3.72
2023-02-05T16:17:06.274Z,-3.60
2023-02-05T16:19:42.423Z,-3.63
2023-02-05T16:22:25.809Z,-3.49
2023-02-05T16:25:01.533Z,-3.60
2023-02-05T16:27:37.588Z,-3.62
2023-02-05T16:30:13.354Z,-3.70
2023-02-05T16:32:43.875Z,-3.74
2023-02-05T16:35:21.992Z,-3.73
2023-02-05T16:37:52.330Z,-3.57
2023-02-05T16:40:35.838Z,-3.53
2023-02-05T16:43:27.887Z,-3.55
2023-02-05T16:46:27.682Z,-3.60
2023-02-05T16:49:00.447Z,-3.61
2023-02-05T16:51:38.259Z,-3.64
2023-02-05T16:54:32.329Z,-3.72
2023-02-05T16:57:06.712Z,-3.86
2023-02-05T16:59:49.758Z,-3.74
2023-02-05T17:02:29.181Z,-3.75
2023-02-05T17:05:01.819Z,-3.75
2023-02-05T17:07:32.953Z,-3.78
2023-02-05T17:10:17.512Z,-3.63
2023-02-05T17:12:54.339Z,-3.81
2023-02-05T17:15:31.835Z,-3.79
2023-02-05T17:18:06.549Z,-3.87
2023-02-05T17:20:36.220Z,-3.80
2023-02-05T17:23:10.052Z,-3.80
2023-02-05T17:25:41.704Z,-3.92
2023-02-05T17:28:16.861Z,-3.87
2023-02-05T17:30:49.354Z,-3.84
2023-02-05T17:33:21.375Z,-3.88
2023-02-05T17:35:51.224Z,-3.85
2023-02-05T17:38:23.702Z,-3.77
2023-02-05T17:41:13.933Z,-3.78
2023-02-05T17:43:43.761Z,-3.71
2023-02-05T17:46:17.273Z,-3.87
2023-02-05T17:48:47.035Z,-3.96
2023-02-05T17:51:22.174Z,-3.79
2023-02-05T17:53:51.813Z,-3.78
2023-02-05T17:56:21.698Z,-3.67
2023-02-05T17:58:52.412Z,-3.79
2023-02-05T18:01:23.596Z,-3.77
2023-02-05T18:03:53.354Z,-3.74
2023-02-05T18:06:22.704Z,-3.77
2023-02-05T18:08:52.470Z,-3.80
2023-02-05T18:11:21.750Z,-3.68
2023-02-05T18:13:51.081Z,-3.71
2023-02-05T18:16:20.318Z,-3.77
2023-02-05T18:18:51.002Z,-3.89
2023-02-05T18:21:21.674Z,-3.78
2023-02-05T18:23:52.770Z,-3.85
2023-02-05T18:26:22.947Z,-3.82
2023-02-05T18:28:52.025Z,-3.74
2023-02-05T18:31:21.327Z,-3.65
2023-02-05T18:33:53.733Z,-3.58
2023-02-05T18:36:23.284Z,-3.59
2023-02-05T18:38:53.358Z,-3.47
2023-02-05T18:41:23.092Z,-3.47
2023-02-05T18:43:55.373Z,-3.41
2023-02-05T18:46:25.054Z,-3.58
2023-02-05T18:48:57.060Z,-3.55
2023-02-05T18:51:26.147Z,-3.55
2023-02-05T18:53:55.277Z,-3.61
2023-02-05T18:56:25.484Z,-3.67
2023-02-05T18:58:59.423Z,-3.58
2023-02-05T19:01:29.352Z,-3.68
2023-02-05T19:04:03.076Z,-3.67
2023-02-05T19:06:32.962Z,-3.63
2023-02-05T19:09:03.316Z,-3.69
2023-02-05T19:11:34.295Z,-3.78
2023-02-05T19:14:08.025Z,-3.82
2023-02-05T19:16:37.541Z,-3.76
2023-02-05T19:19:08.744Z,-3.78
2023-02-05T19:21:37.965Z,-3.76
2023-02-05T19:24:07.843Z,-3.80
2023-02-05T19:26:38.578Z,-3.75
2023-02-05T19:29:16.783Z,-3.80
2023-02-05T19:31:47.291Z,-3.86
2023-02-05T19:34:18.613Z,-3.80
2023-02-05T19:36:47.715Z,-3.83
2023-02-05T19:39:16.873Z,-3.88
2023-02-05T19:41:48.523Z,-3.89
2023-02-05T19:44:18.938Z,-3.92
2023-02-05T19:46:49.708Z,-3.86
2023-02-05T19:49:22.939Z,-3.81
2023-02-05T19:51:54.497Z,-3.89
2023-02-05T19:54:24.412Z,-3.95
2023-02-05T19:56:53.500Z,-3.99
2023-02-05T19:59:22.653Z,-3.90
2023-02-05T20:01:51.799Z,-3.81
2023-02-05T20:04:25.096Z,-3.87
2023-02-05T20:06:57.254Z,-3.85
2023-02-05T20:09:27.214Z,-3.92
2023-02-05T20:11:56.658Z,-4.06
2023-02-05T20:14:26.169Z,-3.89
2023-02-05T20:16:55.522Z,-3.83
2023-02-05T20:19:26.214Z,-3.77
2023-02-05T20:21:55.294Z,-3.79
2023-02-05T20:24:24.649Z,-3.88
2023-02-05T20:26:54.036Z,-3.92
2023-02-05T20:29:40.484Z,-3.95
2023-02-05T20:32:11.288Z,-3.94
2023-02-05T20:34:45.117Z,-3.86
2023-02-05T20:37:14.361Z,-4.02
2023-02-05T20:39:45.504Z,-3.95
2023-02-05T20:42:14.928Z,-3.97
2023-02-05T20:44:45.147Z,-3.84
2023-02-05T20:47:16.004Z,-3.89
2023-02-05T20:49:46.547Z,-3.85
2023-02-05T20:52:15.834Z,-3.77
2023-02-05T20:54:44.923Z,-3.89
2023-02-05T20:57:14.078Z,-3.88
2023-02-05T20:59:43.028Z,-3.95
2023-02-05T21:02:13.905Z,-3.90
2023-02-05T21:04:43.124Z,-3.83
2023-02-05T21:07:13.665Z,-3.80
2023-02-05T21:09:42.670Z,-3.85
2023-02-05T21:12:11.614Z,-3.96
2023-02-05T21:14:40.541Z,-4.08
2023-02-05T21:17:10.665Z,-4.09
2023-02-05T21:19:40.713Z,-4.09
2023-02-05T21:22:09.821Z,-4.06
2023-02-05T21:24:40.842Z,-4.02
2023-02-05T21:27:09.955Z,-3.87
2023-02-05T21:29:38.983Z,-3.81
2023-02-05T21:32:08.318Z,-3.82
2023-02-05T21:34:38.055Z,-3.94
2023-02-05T21:37:07.115Z,-3.81
2023-02-05T21:39:37.489Z,-3.78
2023-02-05T21:42:08.595Z,-3.77
2023-02-05T21:44:37.504Z,-3.78
2023-02-05T21:47:06.639Z,-3.87
2023-02-05T21:49:35.629Z,-3.88
2023-02-05T21:52:04.678Z,-3.90
2023-02-05T21:54:35.055Z,-3.99
2023-02-05T21:57:04.219Z,-3.93
2023-02-05T21:59:35.289Z,-3.93
2023-02-05T22:02:04.407Z,-4.02
2023-02-05T22:04:34.267Z,-4.09
2023-02-05T22:07:03.372Z,-3.98
2023-02-05T22:09:33.121Z,-4.05
2023-02-05T22:12:04.024Z,-4.11
2023-02-05T22:14:35.855Z,-4.10
2023-02-05T22:17:05.097Z,-4.21
2023-02-05T22:19:34.712Z,-4.28
2023-02-05T22:22:04.919Z,-4.25
2023-02-05T22:24:34.484Z,-4.27
2023-02-05T22:27:03.802Z,-4.26
2023-02-05T22:29:34.525Z,-4.16
2023-02-05T22:32:04.165Z,-4.23
2023-02-05T22:34:33.180Z,-4.13
2023-02-05T22:37:02.376Z,-4.19
2023-02-05T22:39:31.586Z,-4.12
2023-02-05T22:42:04.613Z,-4.16
2023-02-05T22:44:35.117Z,-4.13
2023-02-05T22:47:04.221Z,-4.13
2023-02-05T22:49:33.238Z,-4.27
2023-02-05T22:52:02.780Z,-4.27
2023-02-05T22:54:31.859Z,-4.23
2023-02-05T22:57:00.831Z,-4.27
2023-02-05T22:59:30.099Z,-4.30
2023-02-05T23:02:00.561Z,-4.24
2023-02-05T23:04:29.572Z,-4.29
2023-02-05T23:06:58.606Z,-4.16
2023-02-05T23:09:27.607Z,-4.08
2023-02-05T23:11:58.022Z,-4.02
2023-02-05T23:14:27.155Z,-4.04
2023-02-05T23:16:59.343Z,-4.05
2023-02-05T23:19:29.697Z,-3.95
2023-02-05T23:21:58.721Z,-4.15
2023-02-05T23:24:28.864Z,-4.06
2023-02-05T23:26:58.376Z,-4.06
2023-02-05T23:29:27.432Z,-4.07
2023-02-05T23:31:56.439Z,-4.22
2023-02-05T23:34:25.514Z,-4.26
2023-02-05T23:36:56.912Z,-4.35
2023-02-05T23:39:26.072Z,-4.34
2023-02-05T23:41:55.060Z,-4.24
2023-02-05T23:44:24.511Z,-4.26
2023-02-05T23:46:53.868Z,-4.33
2023-02-05T23:49:23.695Z,-4.29
2023-02-05T23:51:54.603Z,-4.33
2023-02-05T23:54:26.033Z,-4.45
2023-02-05T23:56:58.093Z,-4.38
2023-02-05T23:59:27.207Z,-4.53
